createdAt,value
2022-09-07T00:00:56.888Z,7.97
2022-09-07T00:03:00.208Z,8.20
2022-09-07T00:05:03.524Z,7.73
2022-09-07T00:07:06.717Z,8.03
2022-09-07T00:09:09.945Z,8.80
2022-09-07T00:11:14.882Z,7.73
2022-09-07T00:13:19.912Z,8.93
2022-09-07T00:15:23.182Z,7.93
2022-09-07T00:17:26.296Z,8.13
2022-09-07T00:19:29.489Z,7.80
2022-09-07T00:21:32.923Z,7.63
2022-09-07T00:23:37.549Z,7.90
2022-09-07T00:25:44.294Z,8.07
2022-09-07T00:27:47.462Z,8.17
2022-09-07T00:29:51.928Z,8.20
2022-09-07T00:31:55.659Z,7.67
2022-09-07T00:34:00.544Z,8.07
2022-09-07T00:36:04.039Z,8.20
2022-09-07T00:38:07.127Z,7.63
2022-09-07T00:40:10.720Z,7.70
2022-09-07T00:42:13.918Z,7.70
2022-09-07T00:45:09.919Z,8.37
2022-09-07T00:47:17.544Z,8.30
2022-09-07T00:49:23.028Z,8.53
2022-09-07T00:51:33.938Z,9.10
2022-09-07T00:53:39.532Z,8.97
2022-09-07T00:55:47.316Z,8.10
2022-09-07T00:57:54.627Z,8.00
2022-09-07T00:59:59.184Z,7.27
2022-09-07T01:02:02.915Z,7.70
2022-09-07T01:04:08.127Z,7.50
2022-09-07T01:06:16.407Z,8.73
2022-09-07T01:08:19.658Z,8.00
2022-09-07T01:10:24.824Z,8.03
2022-09-07T01:12:27.896Z,8.50
2022-09-07T01:14:32.976Z,8.40
2022-09-07T01:16:58.883Z,7.47
2022-09-07T01:19:13.549Z,8.07
2022-09-07T01:21:27.290Z,8.23
2022-09-07T01:24:03.657Z,8.00
2022-09-07T01:26:33.774Z,8.53
2022-09-07T01:28:38.854Z,7.70
2022-09-07T01:30:46.201Z,8.13
2022-09-07T01:33:02.485Z,8.40
2022-09-07T01:35:11.518Z,8.53
2022-09-07T01:37:20.806Z,8.37
2022-09-07T01:39:26.649Z,8.50
2022-09-07T01:41:34.050Z,8.17
2022-09-07T01:43:42.797Z,8.93
2022-09-07T01:45:46.485Z,8.00
2022-09-07T01:47:53.285Z,7.87
2022-09-07T01:49:59.840Z,8.23
2022-09-07T01:52:06.303Z,8.30
2022-09-07T01:54:12.362Z,8.50
2022-09-07T01:56:23.553Z,8.63
2022-09-07T01:58:30.282Z,8.50
2022-09-07T02:00:35.837Z,9.10
2022-09-07T02:02:41.952Z,8.23
2022-09-07T02:04:49.661Z,8.03
2022-09-07T02:06:57.263Z,7.80
2022-09-07T02:09:03.282Z,8.17
2022-09-07T02:11:10.874Z,8.63
2022-09-07T02:13:17.898Z,8.27
2022-09-07T02:15:24.366Z,7.47
2022-09-07T02:17:32.291Z,8.20
2022-09-07T02:19:39.260Z,6.90
2022-09-07T02:21:44.481Z,7.50
2022-09-07T02:23:51.944Z,8.10
2022-09-07T02:25:58.148Z,9.17
2022-09-07T02:28:06.384Z,8.23
2022-09-07T02:30:10.557Z,8.53
2022-09-07T02:32:13.596Z,8.47
2022-09-07T02:34:18.089Z,8.50
2022-09-07T02:36:24.170Z,8.23
2022-09-07T02:38:27.369Z,8.00
2022-09-07T02:40:33.065Z,8.20
2022-09-07T02:42:36.567Z,9.13
2022-09-07T02:44:41.242Z,8.63
2022-09-07T02:46:54.156Z,8.70
2022-09-07T02:49:02.184Z,8.57
2022-09-07T02:51:16.688Z,7.90
2022-09-07T02:53:31.500Z,7.53
2022-09-07T02:55:42.942Z,7.70
2022-09-07T02:57:51.659Z,8.20
2022-09-07T03:00:03.914Z,8.30
2022-09-07T03:02:12.828Z,8.50
2022-09-07T03:04:20.997Z,7.70
2022-09-07T03:06:28.798Z,8.20
2022-09-07T03:08:37.705Z,8.60
2022-09-07T03:10:41.548Z,7.70
2022-09-07T03:12:46.216Z,7.53
2022-09-07T03:14:49.388Z,8.00
2022-09-07T03:16:57.336Z,8.10
2022-09-07T03:19:00.672Z,7.83
2022-09-07T03:21:03.741Z,8.17
2022-09-07T03:23:08.274Z,7.33
2022-09-07T03:25:11.592Z,7.90
2022-09-07T03:27:14.605Z,7.70
2022-09-07T03:29:17.752Z,7.70
2022-09-07T03:31:23.437Z,8.00
2022-09-07T03:33:26.623Z,7.73
2022-09-07T03:35:29.855Z,7.80
2022-09-07T03:37:33.128Z,7.90
2022-09-07T03:39:37.630Z,7.53
2022-09-07T03:41:40.887Z,8.00
2022-09-07T03:43:44.136Z,7.53
2022-09-07T03:45:49.735Z,7.70
2022-09-07T03:47:53.201Z,7.80
2022-09-07T03:49:56.285Z,7.73
2022-09-07T03:51:59.361Z,8.37
2022-09-07T03:54:02.481Z,8.50
2022-09-07T03:56:08.967Z,7.60
2022-09-07T03:58:11.988Z,8.17
2022-09-07T04:00:16.162Z,7.53
2022-09-07T04:02:19.658Z,8.57
2022-09-07T04:04:22.763Z,7.30
2022-09-07T04:06:26.398Z,7.90
2022-09-07T04:08:30.600Z,7.77
2022-09-07T04:10:38.470Z,7.27
2022-09-07T04:12:42.923Z,7.63
2022-09-07T04:14:46.393Z,7.13
2022-09-07T04:16:50.578Z,7.40
2022-09-07T04:18:54.828Z,6.53
2022-09-07T04:21:00.035Z,6.43
2022-09-07T04:23:06.075Z,6.17
2022-09-07T04:25:09.722Z,6.90
2022-09-07T04:27:12.850Z,6.40
2022-09-07T04:29:17.339Z,6.43
2022-09-07T04:31:20.922Z,6.33
2022-09-07T04:33:24.149Z,5.37
2022-09-07T04:35:27.227Z,5.67
2022-09-07T04:37:30.460Z,5.10
2022-09-07T04:39:33.542Z,4.83
2022-09-07T04:41:36.637Z,5.97
2022-09-07T04:43:40.980Z,6.17
2022-09-07T04:45:45.450Z,5.87
2022-09-07T04:47:49.238Z,6.47
2022-09-07T04:49:52.380Z,6.70
2022-09-07T04:51:55.524Z,7.20
2022-09-07T04:54:00.567Z,7.83
2022-09-07T04:56:03.997Z,6.40
2022-09-07T04:58:07.358Z,7.10
2022-09-07T05:00:11.662Z,7.20
2022-09-07T05:02:16.271Z,7.10
2022-09-07T05:04:19.413Z,6.70
2022-09-07T05:06:23.322Z,6.73
2022-09-07T05:08:26.518Z,6.83
2022-09-07T05:10:29.629Z,6.23
2022-09-07T05:12:32.787Z,6.70
2022-09-07T05:14:35.850Z,7.27
2022-09-07T05:16:39.069Z,7.10
2022-09-07T05:18:43.645Z,7.20
2022-09-07T05:20:46.730Z,7.30
2022-09-07T05:22:49.870Z,7.40
2022-09-07T05:24:53.105Z,7.50
2022-09-07T05:26:56.195Z,6.80
2022-09-07T05:31:25.449Z,7.43
2022-09-07T05:35:58.548Z,7.73
2022-09-07T05:38:01.614Z,7.10
2022-09-07T05:40:05.356Z,8.13
2022-09-07T05:42:08.710Z,7.60
2022-09-07T05:46:35.028Z,7.53
2022-09-07T05:48:38.710Z,6.97
2022-09-07T05:50:54.445Z,7.47
2022-09-07T05:52:59.658Z,7.63
2022-09-07T05:55:19.637Z,7.47
2022-09-07T05:57:25.979Z,7.67
2022-09-07T05:59:29.694Z,7.87
2022-09-07T06:01:35.340Z,7.63
2022-09-07T06:03:39.875Z,7.90
2022-09-07T06:05:42.991Z,7.87
2022-09-07T06:07:49.001Z,7.50
2022-09-07T06:12:16.715Z,7.10
2022-09-07T06:14:19.840Z,7.30
2022-09-07T06:16:23.055Z,7.03
2022-09-07T06:18:30.419Z,7.10
2022-09-07T06:20:33.597Z,7.60
2022-09-07T06:22:37.464Z,6.70
2022-09-07T06:24:40.635Z,7.20
2022-09-07T06:26:45.082Z,6.93
2022-09-07T06:28:50.791Z,6.60
2022-09-07T06:30:54.663Z,6.17
2022-09-07T06:32:57.861Z,6.43
2022-09-07T06:35:00.909Z,6.50
2022-09-07T06:37:03.990Z,6.80
2022-09-07T06:39:07.175Z,6.63
2022-09-07T06:43:36.321Z,7.40
2022-09-07T06:45:39.477Z,6.00
2022-09-07T06:47:42.714Z,6.27
2022-09-07T06:49:45.902Z,6.03
2022-09-07T06:51:49.023Z,5.80
2022-09-07T06:53:52.534Z,6.30
2022-09-07T06:55:55.946Z,6.90
2022-09-07T06:57:59.081Z,6.07
2022-09-07T07:00:04.261Z,6.37
2022-09-07T07:02:08.258Z,6.20
2022-09-07T07:04:11.394Z,6.10
2022-09-07T07:06:15.068Z,5.33
2022-09-07T07:08:18.154Z,5.40
2022-09-07T07:10:24.806Z,4.90
2022-09-07T07:14:34.997Z,5.30
2022-09-07T07:16:40.693Z,4.60
2022-09-07T07:18:44.789Z,4.40
2022-09-07T07:20:47.910Z,4.20
2022-09-07T07:22:52.049Z,4.53
2022-09-07T07:24:55.180Z,4.43
2022-09-07T07:26:58.340Z,4.13
2022-09-07T07:29:03.185Z,3.97
2022-09-07T07:31:11.313Z,3.80
2022-09-07T07:33:17.681Z,3.50
2022-09-07T07:35:20.964Z,3.70
2022-09-07T07:37:28.005Z,3.50
2022-09-07T07:41:56.504Z,3.93
2022-09-07T07:44:03.172Z,3.40
2022-09-07T07:46:06.789Z,3.70
2022-09-07T07:48:12.717Z,3.00
2022-09-07T07:50:33.119Z,4.10
2022-09-07T07:55:42.921Z,3.57
2022-09-07T07:57:30.024Z,3.87
2022-09-07T07:59:33.075Z,3.57
2022-09-07T08:01:36.619Z,3.30
2022-09-07T08:03:42.095Z,4.00
2022-09-07T08:05:46.551Z,3.30
2022-09-07T08:07:49.817Z,4.37
2022-09-07T08:09:52.942Z,3.40
2022-09-07T08:11:56.185Z,3.73
2022-09-07T08:14:00.259Z,3.77
2022-09-07T08:16:05.728Z,3.80
2022-09-07T08:18:08.820Z,3.43
2022-09-07T08:20:11.789Z,3.40
2022-09-07T08:22:16.071Z,3.30
2022-09-07T08:24:19.215Z,3.67
2022-09-07T08:26:22.239Z,3.30
2022-09-07T08:28:25.750Z,3.47
2022-09-07T08:30:29.311Z,3.37
2022-09-07T08:32:32.310Z,3.80
2022-09-07T08:34:37.181Z,3.20
2022-09-07T08:36:40.148Z,2.87
2022-09-07T08:38:44.801Z,3.53
2022-09-07T08:40:47.958Z,3.93
2022-09-07T08:43:01.633Z,3.13
2022-09-07T08:45:07.766Z,3.53
2022-09-07T08:47:20.925Z,3.40
2022-09-07T08:49:31.833Z,2.90
2022-09-07T08:51:38.394Z,3.73
2022-09-07T08:53:46.613Z,3.20
2022-09-07T08:55:52.653Z,3.50
2022-09-07T08:58:01.832Z,3.93
2022-09-07T09:00:08.736Z,3.20
2022-09-07T09:02:34.005Z,3.97
2022-09-07T09:05:16.117Z,3.27
2022-09-07T09:07:10.333Z,3.50
2022-09-07T09:09:21.354Z,4.03
2022-09-07T09:11:29.017Z,3.50
2022-09-07T09:13:42.790Z,3.47
2022-09-07T09:15:54.392Z,3.97
2022-09-07T09:18:02.079Z,4.00
2022-09-07T09:20:14.540Z,3.80
2022-09-07T09:22:20.279Z,3.90
2022-09-07T09:24:31.805Z,3.93
2022-09-07T09:26:35.400Z,3.90
2022-09-07T09:28:39.241Z,3.57
2022-09-07T09:30:43.087Z,3.47
2022-09-07T09:32:47.494Z,4.07
2022-09-07T09:35:02.213Z,3.90
2022-09-07T09:37:05.289Z,4.13
2022-09-07T09:41:43.619Z,4.00
2022-09-07T09:43:48.323Z,3.97
2022-09-07T09:48:20.547Z,3.90
2022-09-07T09:52:51.976Z,3.90
2022-09-07T09:55:03.367Z,3.90
2022-09-07T09:57:15.436Z,21.57
2022-09-07T10:04:24.388Z,3.30
2022-09-07T10:06:27.733Z,4.10
2022-09-07T10:08:32.453Z,3.50
2022-09-07T10:10:35.931Z,3.43
2022-09-07T10:12:41.258Z,3.70
2022-09-07T10:14:45.375Z,3.43
2022-09-07T10:16:48.606Z,3.40
2022-09-07T10:18:56.535Z,3.17
2022-09-07T10:21:23.679Z,3.40
2022-09-07T10:23:28.631Z,3.47
2022-09-07T10:25:33.249Z,3.40
2022-09-07T10:27:38.753Z,3.67
2022-09-07T10:29:43.192Z,3.20
2022-09-07T10:32:05.432Z,3.50
2022-09-07T10:34:27.467Z,2.97
2022-09-07T10:36:36.045Z,3.60
2022-09-07T10:38:43.349Z,3.00
2022-09-07T10:40:51.304Z,3.37
2022-09-07T10:45:29.041Z,3.40
2022-09-07T10:47:43.599Z,3.30
2022-09-07T10:52:17.886Z,3.57
2022-09-07T10:54:30.539Z,3.03
2022-09-07T10:56:37.101Z,3.20
2022-09-07T10:59:07.616Z,3.27
2022-09-07T11:01:18.415Z,3.10
2022-09-07T11:03:32.761Z,3.20
2022-09-07T11:05:41.224Z,3.17
2022-09-07T11:07:56.505Z,2.90
2022-09-07T11:10:01.116Z,2.80
2022-09-07T11:12:08.136Z,3.20
2022-09-07T11:14:14.623Z,2.50
2022-09-07T11:18:51.421Z,3.20
2022-09-07T11:20:56.565Z,2.40
2022-09-07T11:23:07.619Z,2.80
2022-09-07T11:25:33.064Z,2.90
2022-09-07T11:27:40.389Z,2.93
2022-09-07T11:29:48.148Z,3.43
2022-09-07T11:31:55.461Z,2.73
2022-09-07T11:36:27.887Z,3.20
2022-09-07T11:38:35.575Z,2.67
2022-09-07T11:40:44.071Z,2.73
2022-09-07T11:42:50.953Z,3.10
2022-09-07T11:44:58.117Z,3.20
2022-09-07T11:47:05.730Z,3.07
2022-09-07T11:49:15.027Z,3.57
2022-09-07T11:51:22.566Z,2.97
2022-09-07T11:53:29.075Z,2.77
2022-09-07T11:55:36.339Z,2.73
2022-09-07T11:57:45.748Z,3.00
2022-09-07T11:59:57.601Z,2.57
2022-09-07T12:02:14.820Z,3.07
2022-09-07T12:04:56.343Z,2.60
2022-09-07T12:07:10.849Z,2.80
2022-09-07T12:09:26.618Z,3.10
2022-09-07T12:11:39.040Z,2.50
2022-09-07T12:14:17.061Z,2.63
2022-09-07T12:16:24.241Z,2.60
2022-09-07T12:18:41.880Z,2.83
2022-09-07T12:20:46.070Z,3.00
2022-09-07T12:23:05.235Z,3.23
2022-09-07T12:25:09.477Z,2.73
2022-09-07T12:27:42.214Z,2.70
2022-09-07T12:29:45.585Z,2.87
2022-09-07T12:32:07.413Z,3.13
2022-09-07T12:34:54.299Z,2.80
2022-09-07T12:36:57.817Z,2.77
2022-09-07T12:39:20.865Z,2.60
2022-09-07T12:41:25.553Z,2.80
2022-09-07T12:43:53.425Z,3.23
2022-09-07T12:45:56.740Z,2.67
2022-09-07T12:48:01.006Z,3.90
2022-09-07T12:50:22.632Z,2.73
2022-09-07T12:52:50.100Z,2.47
2022-09-07T12:55:23.633Z,2.50
2022-09-07T12:57:31.845Z,2.63
2022-09-07T12:59:46.949Z,2.20
2022-09-07T13:01:58.021Z,2.40
2022-09-07T13:04:50.125Z,2.57
2022-09-07T13:07:10.434Z,2.40
2022-09-07T13:09:30.553Z,2.20
2022-09-07T13:11:36.173Z,2.40
2022-09-07T13:16:29.109Z,2.43
2022-09-07T13:18:43.424Z,2.37
2022-09-07T13:20:47.293Z,2.57
2022-09-07T13:23:13.407Z,2.53
2022-09-07T13:25:46.436Z,2.50
2022-09-07T13:27:53.631Z,2.47
2022-09-07T13:29:58.590Z,2.73
2022-09-07T13:32:08.003Z,2.67
2022-09-07T13:34:46.932Z,2.37
2022-09-07T13:36:50.174Z,2.30
2022-09-07T13:38:55.504Z,2.50
2022-09-07T13:41:02.844Z,2.83
2022-09-07T13:43:06.244Z,2.40
2022-09-07T13:45:28.974Z,2.37
2022-09-07T13:47:38.778Z,2.73
2022-09-07T13:50:00.585Z,2.10
2022-09-07T13:52:07.415Z,2.30
2022-09-07T13:54:18.063Z,2.20
2022-09-07T13:56:31.121Z,2.30
2022-09-07T13:58:35.886Z,2.40
2022-09-07T14:00:51.097Z,2.40
2022-09-07T14:02:56.779Z,2.40
2022-09-07T14:05:01.495Z,2.47
2022-09-07T14:07:06.688Z,2.20
2022-09-07T14:09:16.105Z,2.67
2022-09-07T14:11:20.241Z,2.10
2022-09-07T14:13:23.242Z,2.17
2022-09-07T14:15:30.257Z,2.27
2022-09-07T14:17:33.276Z,2.60
2022-09-07T14:19:39.208Z,2.37
2022-09-07T14:21:42.166Z,2.53
2022-09-07T14:23:50.807Z,2.37
2022-09-07T14:26:17.458Z,2.60
2022-09-07T14:28:31.123Z,2.30
2022-09-07T14:30:34.570Z,2.20
2022-09-07T14:32:38.023Z,2.60
2022-09-07T14:34:41.621Z,2.30
2022-09-07T14:36:46.845Z,1.90
2022-09-07T14:39:06.226Z,2.27
2022-09-07T14:41:14.598Z,2.60
2022-09-07T14:43:33.040Z,2.43
2022-09-07T14:45:37.807Z,2.70
2022-09-07T14:47:40.912Z,2.60
2022-09-07T14:49:43.936Z,2.17
2022-09-07T14:51:48.384Z,2.13
2022-09-07T14:53:52.998Z,2.50
2022-09-07T14:56:02.767Z,2.33
2022-09-07T14:58:11.816Z,2.20
2022-09-07T15:00:27.714Z,2.10
2022-09-07T15:02:36.606Z,2.33
2022-09-07T15:04:41.601Z,2.00
2022-09-07T15:07:02.153Z,2.43
2022-09-07T15:09:07.243Z,2.10
2022-09-07T15:13:40.062Z,2.60
2022-09-07T15:15:46.780Z,2.90
2022-09-07T15:17:50.084Z,2.60
2022-09-07T15:19:53.157Z,2.30
2022-09-07T15:21:56.277Z,2.50
2022-09-07T15:24:00.679Z,2.57
2022-09-07T15:26:03.761Z,2.30
2022-09-07T15:28:07.097Z,2.80
2022-09-07T15:30:12.972Z,2.50
2022-09-07T15:32:17.924Z,2.50
2022-09-07T15:34:21.715Z,2.33
2022-09-07T15:36:24.685Z,2.50
2022-09-07T15:41:18.537Z,2.40
2022-09-07T15:43:30.806Z,2.10
2022-09-07T15:45:35.215Z,2.70
2022-09-07T15:47:53.888Z,2.20
2022-09-07T15:49:57.089Z,2.60
2022-09-07T15:52:07.231Z,2.30
2022-09-07T15:54:14.309Z,2.00
2022-09-07T15:56:20.297Z,2.30
2022-09-07T15:58:23.457Z,2.50
2022-09-07T16:00:26.587Z,2.10
2022-09-07T16:04:54.363Z,2.40
2022-09-07T16:06:57.973Z,2.17
2022-09-07T16:09:01.305Z,2.33
2022-09-07T16:11:18.323Z,2.80
2022-09-07T16:13:23.969Z,2.33
2022-09-07T16:15:27.289Z,2.00
2022-09-07T16:17:36.669Z,2.70
2022-09-07T16:19:41.414Z,1.90
2022-09-07T16:21:44.431Z,2.30
2022-09-07T16:23:49.349Z,2.07
2022-09-07T16:25:59.083Z,2.40
2022-09-07T16:28:02.092Z,2.43
2022-09-07T16:30:05.833Z,2.70
2022-09-07T16:34:33.328Z,2.80
2022-09-07T16:36:36.512Z,3.10
2022-09-07T16:38:45.638Z,2.77
2022-09-07T16:40:49.973Z,2.50
2022-09-07T16:42:53.058Z,3.10
2022-09-07T16:46:02.513Z,2.50
2022-09-07T16:47:19.111Z,2.30
2022-09-07T16:49:22.542Z,2.60
2022-09-07T16:51:28.592Z,2.40
2022-09-07T16:53:33.658Z,2.40
2022-09-07T16:55:36.671Z,2.90
2022-09-07T17:00:03.737Z,2.67
2022-09-07T17:02:06.727Z,3.30
2022-09-07T17:04:11.468Z,3.10
2022-09-07T17:06:15.236Z,2.97
2022-09-07T17:08:19.839Z,2.67
2022-09-07T17:10:23.206Z,2.83
2022-09-07T17:12:26.801Z,2.60
2022-09-07T17:14:29.895Z,2.73
2022-09-07T17:16:34.596Z,2.87
2022-09-07T17:21:03.381Z,2.50
2022-09-07T17:23:06.381Z,2.67
2022-09-07T17:25:11.674Z,2.23
2022-09-07T17:27:17.002Z,2.57
2022-09-07T17:29:20.400Z,2.50
2022-09-07T17:33:50.566Z,3.00
2022-09-07T17:35:53.770Z,2.70
2022-09-07T17:37:57.303Z,2.60
2022-09-07T17:40:03.425Z,2.97
2022-09-07T17:42:09.855Z,3.50
2022-09-07T17:44:12.937Z,2.50
2022-09-07T17:46:19.222Z,2.70
2022-09-07T17:48:22.221Z,2.80
2022-09-07T17:50:25.262Z,2.70
2022-09-07T17:52:28.714Z,2.50
2022-09-07T17:54:32.818Z,2.50
2022-09-07T17:56:35.994Z,2.50
2022-09-07T17:58:41.426Z,2.50
2022-09-07T18:00:45.981Z,7.30
2022-09-07T18:02:49.224Z,5.97
2022-09-07T18:04:52.204Z,5.70
2022-09-07T18:06:55.327Z,5.37
2022-09-07T18:08:58.742Z,3.50
2022-09-07T18:13:36.211Z,9.50
2022-09-07T18:15:41.975Z,12.10
2022-09-07T18:17:45.138Z,10.93
2022-09-07T18:19:48.203Z,7.33
2022-09-07T18:21:52.040Z,15.37
2022-09-07T18:23:56.175Z,14.27
2022-09-07T18:26:00.600Z,11.43
2022-09-07T18:30:27.616Z,9.67
2022-09-07T18:32:32.268Z,8.40
2022-09-07T18:34:35.603Z,4.10
2022-09-07T18:36:40.723Z,2.97
2022-09-07T18:38:43.737Z,3.40
2022-09-07T18:40:46.890Z,2.73
2022-09-07T18:42:50.067Z,3.10
2022-09-07T18:47:27.919Z,3.63
2022-09-07T18:49:32.991Z,3.80
2022-09-07T18:54:02.124Z,3.57
2022-09-07T18:56:06.570Z,3.10
2022-09-07T18:58:09.562Z,2.93
2022-09-07T19:00:13.790Z,2.83
2022-09-07T19:02:19.035Z,2.90
2022-09-07T19:04:25.351Z,2.77
2022-09-07T19:06:29.794Z,2.50
2022-09-07T19:08:33.380Z,2.50
2022-09-07T19:10:37.173Z,2.77
2022-09-07T19:12:45.041Z,2.60
2022-09-07T19:14:49.021Z,3.10
2022-09-07T19:16:52.319Z,2.93
2022-09-07T19:18:56.680Z,2.70
2022-09-07T19:21:03.349Z,2.90
2022-09-07T19:23:07.840Z,2.37
2022-09-07T19:25:11.289Z,2.80
2022-09-07T19:27:14.358Z,2.73
2022-09-07T19:29:19.311Z,2.40
2022-09-07T19:31:22.511Z,2.77
2022-09-07T19:33:26.727Z,2.90
2022-09-07T19:35:30.089Z,2.80
2022-09-07T19:37:33.127Z,2.90
2022-09-07T19:39:37.995Z,3.00
2022-09-07T19:41:44.997Z,2.30
2022-09-07T19:43:48.463Z,2.90
2022-09-07T19:45:51.608Z,2.50
2022-09-07T19:47:54.670Z,2.63
2022-09-07T19:49:58.011Z,2.90
2022-09-07T19:52:01.172Z,2.70
2022-09-07T19:54:04.181Z,2.87
2022-09-07T19:56:09.980Z,9.70
2022-09-07T19:58:13.767Z,4.97
2022-09-07T20:00:17.198Z,3.53
2022-09-07T20:02:20.292Z,2.70
2022-09-07T20:04:24.177Z,2.20
2022-09-07T20:06:28.021Z,4.20
2022-09-07T20:08:31.062Z,4.40
2022-09-07T20:10:34.798Z,2.40
2022-09-07T20:12:39.255Z,2.23
2022-09-07T20:14:42.254Z,2.30
2022-09-07T20:16:45.437Z,2.10
2022-09-07T20:18:48.826Z,2.60
2022-09-07T20:20:51.905Z,2.50
2022-09-07T20:22:54.983Z,2.40
2022-09-07T20:24:58.093Z,2.70
2022-09-07T20:27:02.742Z,2.40
2022-09-07T20:31:30.548Z,3.03
2022-09-07T20:33:33.725Z,2.70
2022-09-07T20:35:36.961Z,2.63
2022-09-07T20:37:39.989Z,2.60
2022-09-07T20:39:43.212Z,2.30
2022-09-07T20:41:46.439Z,2.60
2022-09-07T20:43:50.213Z,2.50
2022-09-07T20:45:58.466Z,2.97
2022-09-07T20:48:01.505Z,3.00
2022-09-07T20:50:05.190Z,2.80
2022-09-07T20:52:08.264Z,2.83
2022-09-07T20:54:11.231Z,2.90
2022-09-07T20:56:16.445Z,2.57
2022-09-07T20:58:19.420Z,2.83
2022-09-07T21:00:22.440Z,2.90
2022-09-07T21:02:26.899Z,2.83
2022-09-07T21:04:30.038Z,2.37
2022-09-07T21:06:33.800Z,3.20
2022-09-07T21:08:37.799Z,2.90
2022-09-07T21:10:41.088Z,3.10
2022-09-07T21:12:44.062Z,3.17
2022-09-07T21:14:47.052Z,3.13
2022-09-07T21:16:50.031Z,3.03
2022-09-07T21:18:56.557Z,3.00
2022-09-07T21:21:18.941Z,3.13
2022-09-07T21:23:23.302Z,3.20
2022-09-07T21:25:26.701Z,3.30
2022-09-07T21:27:38.136Z,3.47
2022-09-07T21:29:41.592Z,3.13
2022-09-07T21:31:44.781Z,3.37
2022-09-07T21:33:47.823Z,3.57
2022-09-07T21:35:52.317Z,3.40
2022-09-07T21:37:55.413Z,3.03
2022-09-07T21:39:59.171Z,2.80
2022-09-07T21:42:02.224Z,2.60
2022-09-07T21:44:05.575Z,3.30
2022-09-07T21:46:09.090Z,3.20
2022-09-07T21:48:12.192Z,2.87
2022-09-07T21:50:15.191Z,3.23
2022-09-07T21:52:19.820Z,2.93
2022-09-07T21:54:22.794Z,3.30
2022-09-07T21:56:26.180Z,3.23
2022-09-07T21:58:30.366Z,3.10
2022-09-07T22:00:33.382Z,2.97
2022-09-07T22:02:36.485Z,3.17
2022-09-07T22:04:39.698Z,3.20
2022-09-07T22:06:43.850Z,3.03
2022-09-07T22:08:48.201Z,3.47
2022-09-07T22:10:51.148Z,2.90
2022-09-07T22:12:55.711Z,3.37
2022-09-07T22:14:58.748Z,3.30
2022-09-07T22:17:02.432Z,3.23
2022-09-07T22:19:05.534Z,3.13
2022-09-07T22:21:10.187Z,3.20
2022-09-07T22:23:13.266Z,3.30
2022-09-07T22:25:17.949Z,3.03
2022-09-07T22:27:21.139Z,2.33
2022-09-07T22:29:24.219Z,3.03
2022-09-07T22:31:29.037Z,2.63
2022-09-07T22:33:32.198Z,2.97
2022-09-07T22:35:35.292Z,3.00
2022-09-07T22:37:38.339Z,3.00
2022-09-07T22:39:41.483Z,3.30
2022-09-07T22:41:47.220Z,3.03
2022-09-07T22:43:51.071Z,3.17
2022-09-07T22:45:54.385Z,3.70
2022-09-07T22:47:57.664Z,2.80
2022-09-07T22:50:00.661Z,3.20
2022-09-07T22:52:03.991Z,2.90
2022-09-07T22:54:07.926Z,3.10
2022-09-07T22:56:12.223Z,3.53
2022-09-07T22:58:16.551Z,3.33
2022-09-07T23:00:19.573Z,3.40
2022-09-07T23:02:22.756Z,2.87
2022-09-07T23:04:30.995Z,3.03
